Logo AVAMET
Benvolgut visitant, si us plau, ingressa Recuperar contrasenya
AVAMET paisatges

València Jesús

Dades diàries. Acumulats / Últims 30 dies disponibles

Data Temperatura (°C) Humitat rel. (%) Pressió rel. (hPa) Vent (km/h) Precipitació
Mínima Mitjana Màxima Amplitud
tèrmica
Mínima Mitjana Màxima Mínima Mitjana Màxima Predom. Mitjana Ràfega
màxima
Total
(mm)
Índex-n
Mínima Mitjana Màxima Mínima Mitjana Màxima n
0 a 1
P0 max
mm 5'
Dades mensuals acumulades fins l'últim dia disponible
04/2020 11,8 11,9 11,9 12,8 16,4 18,2 20,0 8,2 1 69 92 1.008 1.010 1.014   3,7 27,4 0,8
Dades anuals acumulades fins l'últim dia disponible
2020 3,4 10,3 16,3 12,6 12,1 19,0 27,4 24,0 1 58 97 997 1.020 1.033   3,5 72,4 43,4
Últims 30 dies disponibles
02-04-2020 11,9     12,2     16,4 4,5 1 70 87 1.009 1.011 1.014 ESE 2,8 22,5 0,6
01-04-2020 11,8     13,4     20,0 8,2 1 69 92 1.008 1.010 1.011 SE 4,6 27,4 0,2
31-03-2020 7,5     9,3     15,2 7,7 1 70 94 1.008 1.010 1.012 E 6,2 33,8 5,8 0,23 0,60
30-03-2020 8,6     11,7     16,2 7,6 1 61 85 1.011 1.012 1.013 ESE 4,7 33,8 0,8 0,20
29-03-2020 8,0     14,3     22,4 14,4 1 56 81 1.011 1.014 1.018 S 3,8 25,7 0,0
28-03-2020 6,3     11,5     17,4 11,1 1 56 85 1.015 1.017 1.018 S 1,8 20,9 0,0
27-03-2020 7,4     8,8     12,3 4,9 1 72 89 1.011 1.013 1.015 ESE 3,2 22,5 1,6 0,20
26-03-2020 7,2     10,4     17,1 9,9 1 59 89 1.006 1.008 1.012 SE 5,0 37,0 0,8
25-03-2020 9,0     9,2     12,3 3,3 1 70 89 1.013 1.016 1.017 E 4,4 25,7 1,2
24-03-2020 12,8     11,6     14,7 1,9 1 66 90 1.015 1.016 1.017 ENE 13,2 49,9 0,0
23-03-2020 12,0     12,2     17,1 5,1 1 74 93 1.013 1.015 1.016 ENE 6,6 30,6 3,0
22-03-2020 10,8     11,5     15,8 5,0 1 72 93 1.010 1.011 1.014 ESE 2,8 24,1 9,2 0,68 1,20
21-03-2020 11,4     11,6     14,8 3,4 1 70 91 1.011 1.013 1.016 ENE 2,4 19,3 2,6 0,26 1,20
20-03-2020 12,4     12,3     15,3 2,9 1 73 88 1.016 1.017 1.019 ENE 5,9 30,6 0,2
19-03-2020 11,9     12,1     16,2 4,3 1 72 89 1.019 1.021 1.024 ENE 4,4 24,1 0,0
18-03-2020 13,1     11,3     16,6 3,5 1 62 88 1.024 1.025 1.027 ENE 3,6 27,4 0,0
17-03-2020 9,5     10,7     14,8 5,3 1 76 96 1.018 1.023 1.027 ESE 6,5 48,3 14,2 0,26 1,10
16-03-2020 9,7     9,9     15,1 5,4 1 69 91 1.009 1.012 1.018 SSE 3,0 27,4 2,8 0,58 0,60
15-03-2020 12,1     13,6     18,4 6,3 1 70 87 1.013 1.016 1.019 ESE 2,7 20,9 0,0
14-03-2020 11,4     13,7     19,3 7,9 1 68 87 1.017 1.018 1.020 SE 1,7 16,1 0,0
13-03-2020 12,7     13,5     17,6 4,9 1 70 93 1.017 1.018 1.020 ESE 3,6 25,7 0,0
12-03-2020 12,9     14,2     20,7 7,8 1 68 91 1.016 1.018 1.021 ESE 1,9 14,5 0,0
11-03-2020 12,2     15,2     24,2 12,0 1 53 76 1.020 1.021 1.022 SE 1,2 14,5 0,0
10-03-2020 12,6     14,5     18,9 6,3 1 49 67 1.021 1.022 1.025 SE 2,5 30,6 0,0
09-03-2020 12,1     15,4     23,3 11,2 1 38 69 1.018 1.020 1.022 ESE 4,0 27,4 0,0
08-03-2020 9,9     13,5     21,7 11,8 1 49 75 1.018 1.021 1.023 SSE 3,0 24,1 0,0
07-03-2020 10,9     12,8     20,4 9,5 1 38 64 1.018 1.021 1.023 SE 4,3 46,7 0,0
06-03-2020 11,7     13,4     19,1 7,4 1 34 59 1.011 1.013 1.020 SSE 7,7 51,5 0,0
05-03-2020 15,4     16,0     22,5 7,1 1 42 65 1.006 1.009 1.014 SSO 10,1 56,3 0,0
04-03-2020 16,3     17,6     24,9 8,6 1 45 68 1.013 1.015 1.017 SSO 7,2 37,0 0,0
Últims 13 mesos disponibles
03/2020 6,3 11,1 16,3 12,8 12,3 18,3 24,9 18,6 34 59 76 1.005 1.016 1.025 ESE 5,1 72,4 42,6
02/2020 7,0 10,6 13,9 13,1 14,3 20,7 27,4 20,4 37 57 73 1.012 1.024 1.031 SSE 2,3 41,8 0,0
12/2019 6,4 11,1 18,9 11,5 12,1 18,2 24,8 18,4 31 52 83 1.000 1.017 1.031 SE 3,7 69,2 55,2
11/2019 6,0 12,6 21,3 13,2 15,7 20,2 29,3 23,3 31 43 61 997 1.009 1.017 SSO 5,1 54,7 4,6
10/2019 11,9 16,9 21,1 18,0 17,2 25,7 35,3 23,4 34 55 67 1.003 1.014 1.020 SSE 2,6 40,2 11,4
09/2019 16,2 20,8 24,0 21,9 21,2 28,1 34,7 18,5 37 62 71 1.008 1.016 1.023 SE 4,2 54,7 82,6
08/2019 18,8 23,1 27,5 27,2 27,3 31,1 41,7 22,9 40 68 78 1.009 1.014 1.018 ESE 4,1 54,7 11,4
07/2019 21,9 23,4 25,8 27,2 28,3 31,1 37,8 15,9 49 65 75 1.003 1.012 1.019 SSE 4,0 41,8 5,0
06/2019 14,1 18,9 23,0 23,0 21,7 27,2 35,3 21,2 38 63 79 1.007 1.014 1.020 SSE 4,2 57,9 0,0
05/2019 10,1 15,2 20,9 19,1 19,0 23,1 32,7 22,6 45 65 84 1.003 1.014 1.023 SE 4,2 49,9 16,6
04/2019 9,2 11,7 14,5 15,4 13,8 19,5 29,8 20,6 42 65 96 998 1.010 1.018 S 6,4 67,6 59,4
03/2019 7,3 10,4 16,2 15,4 13,4 20,2 29,3 22,0 41 56 84 1.008 1.021 1.028 SSE 3,6 56,3 15,0
02/2019 4,9 8,1 11,1 13,2 12,8 18,2 25,4 20,5 33 61 74 993 1.023 1.032 ESE 3,4 59,5 0,0
Tots els anys disponibles
2019 2,5 15,0 27,5 18,2 12,1 23,4 41,7 39,2 31 59 96 993 1.015 1.032 SSE 4,1 69,2 261,4
2018 2,8 15,2 26,6 18,7 8,9 23,0 37,4 34,6 36 66 93 992 1.014 1.034 SSE 4,1 69,0 694,0
2017 1,4 15,0 26,6 19,1 9,3 23,3 36,8 35,4 31 64 90 996 1.017 1.035 S 1,1 69,0 316,0
2016 3,3 15,1 25,8 18,9 11,1 22,8 36,6 33,3 32 64 89 994 1.017 1.036 71,0 569,8
Temperatura (°C)
Humitat relativa (%)
Velocitat del vent i ràfega màxima (km/h)
Direcció del vent (°)
Pressió (hPa)
Precipitació (mm)
Nota sobre les dades: s'avisa a l'usuari de la provisionalitat i no oficialitat d'aquestes dades
Logo AVAMET blanc
Web allotjada a Sollutia
Llicència de Creative CommonsLa web d'AVAMET i els seus continguts estan subjectes a una llicència de
Reconeixement - No Comercial - Compartir igual
Últimes estacions:  Altea - Com. Regants (Soci), Almoines (Inforatge), Beniparrell (Inforatge), Albal (Inforatge), Almussafes - Parc Industrial (Inforatge), La Vilavella (Soci), la Serratella (soci) - - -